Nearby METAR Reports

 

KAVP - Avoca/Wilkes B., Pennsylvania, USA
Distance from station: N 16mi, 25km
Updated: 12/10/2018 2:54am
Mostly cloudy
Mostly cloudy
 Wind from calm
Wind: Calm
Temperature: 19°F , -7°C
Dew Point: 16°F , -9°C
Humidity: 86%
Barometer: 30.11 inHg , 1019.6 hPa
Clouds: Mostly cloudy
Visibility: 8 miles , 13 km
Cloud details: Mostly cloudy 2500 ft
2018/12/10 07:54 KAVP 100754Z 00000KT 8SM BKN025 M07/M09 A3011 RMK AO2 SLP206 T10721094
KMPO - Mt. Pocono, Pennsylvania, USA
Distance from station: E 20mi, 33km
Updated: 12/10/2018 2:53am
Clear
Clear
 Wind from NNW
Wind: NNW 16 mph , 26 km/h
Temperature: 21°F , -6°C
Wind Chill: 7°F , -14°C
Dew Point: 18°F , -8°C
Humidity: 86%
Barometer: 30.01 inHg , 1016.3 hPa
Clouds: Clear
Visibility: 10 miles , 16 km
2018/12/10 07:53 KMPO 100753Z AUTO 33014KT 10SM CLR M06/M08 A3001 RMK AO2 SLP190 T10611083 $
 
KABE - Allentown, Pennsylvania, USA
Distance from station: SSE 36mi, 58km
Updated: 12/10/2018 2:51am
Clear
Clear
 Wind from calm
Wind: Calm
Temperature: 21°F , -6°C
Dew Point: 14°F , -10°C
Humidity: 74%
Barometer: 30.11 inHg , 1019.6 hPa
Clouds: Clear
Visibility: 10 miles , 16 km
2018/12/10 07:51 KABE 100751Z 00000KT 10SM CLR M06/M10 A3011 RMK AO2 SLP202 T10611100
KXLL - Allentown Queen, Pennsylvania, USA
Distance from station: SSE 41mi, 65km
Updated: 12/10/2018 3:15am
Clear
Clear
 Wind from calm
Wind: Calm
Temperature: 21°F , -6°C
Dew Point: 19°F , -7°C
Humidity: 93%
Barometer: 30.12 inHg , 1020 hPa
Clouds: Clear
Visibility: 10 miles , 16 km
2018/12/10 08:15 KXLL 100815Z AUTO 00000KT 10SM CLR M06/M07 A3012 RMK AO2